createdAt,value
2022-11-17T00:00:45.348Z,93.68
2022-11-17T00:03:15.486Z,93.68
2022-11-17T00:05:44.703Z,93.67
2022-11-17T00:08:12.693Z,93.76
2022-11-17T00:10:40.604Z,93.90
2022-11-17T00:13:29.413Z,93.94
2022-11-17T00:15:57.356Z,94.01
2022-11-17T00:18:43.838Z,94.10
2022-11-17T00:21:19.062Z,94.12
2022-11-17T00:23:47.839Z,93.95
2022-11-17T00:27:01.809Z,93.93
2022-11-17T00:29:30.454Z,93.68
2022-11-17T00:32:17.564Z,93.70
2022-11-17T00:34:45.336Z,93.63
2022-11-17T00:37:15.045Z,93.80
2022-11-17T00:39:42.909Z,93.89
2022-11-17T00:42:10.724Z,93.79
2022-11-17T00:44:38.438Z,93.37
2022-11-17T00:47:06.305Z,93.33
2022-11-17T00:49:34.680Z,93.47
2022-11-17T00:52:02.756Z,93.49
2022-11-17T00:54:30.567Z,93.52
2022-11-17T00:56:58.415Z,93.76
2022-11-17T00:59:26.207Z,93.62
2022-11-17T01:01:54.276Z,93.43
2022-11-17T01:04:22.150Z,93.42
2022-11-17T01:06:50.177Z,93.65
2022-11-17T01:09:23.359Z,93.42
2022-11-17T01:11:52.960Z,93.81
2022-11-17T01:14:24.203Z,93.78
2022-11-17T01:16:53.159Z,93.91
2022-11-17T01:19:21.838Z,93.84
2022-11-17T01:21:49.864Z,93.79
2022-11-17T01:24:18.401Z,93.91
2022-11-17T01:26:46.826Z,93.61
2022-11-17T01:29:19.088Z,93.52
2022-11-17T01:31:51.182Z,93.57
2022-11-17T01:34:19.526Z,93.50
2022-11-17T01:37:05.939Z,93.21
2022-11-17T01:39:33.807Z,93.45
2022-11-17T01:42:13.241Z,93.25
2022-11-17T01:44:57.389Z,93.35
2022-11-17T01:47:37.177Z,93.28
2022-11-17T01:50:32.810Z,93.53
2022-11-17T01:53:07.061Z,93.30
2022-11-17T01:55:40.140Z,93.38
2022-11-17T01:58:16.899Z,93.57
2022-11-17T02:00:44.958Z,93.47
2022-11-17T02:03:13.848Z,93.50
2022-11-17T02:05:53.242Z,93.00
2022-11-17T02:08:24.304Z,93.06
2022-11-17T02:10:53.451Z,93.42
2022-11-17T02:13:22.515Z,93.32
2022-11-17T02:15:50.613Z,93.56
2022-11-17T02:18:20.001Z,93.65
2022-11-17T02:20:51.827Z,93.30
2022-11-17T02:23:35.892Z,93.22
2022-11-17T02:26:41.876Z,93.33
2022-11-17T02:29:23.201Z,93.44
2022-11-17T02:32:17.228Z,93.23
2022-11-17T02:34:52.382Z,93.34
2022-11-17T02:37:32.149Z,93.38
2022-11-17T02:40:09.764Z,93.31
2022-11-17T02:43:06.604Z,93.34
2022-11-17T02:45:37.285Z,93.31
2022-11-17T02:48:12.362Z,93.29
2022-11-17T02:50:41.924Z,93.36
2022-11-17T02:53:10.234Z,93.28
2022-11-17T02:55:38.095Z,93.42
2022-11-17T02:58:12.028Z,93.52
2022-11-17T03:00:51.923Z,93.54
2022-11-17T03:03:41.768Z,93.46
2022-11-17T03:06:43.624Z,93.61
2022-11-17T03:09:47.909Z,93.54
2022-11-17T03:12:23.051Z,93.61
2022-11-17T03:14:53.726Z,93.67
2022-11-17T03:17:50.899Z,93.82
2022-11-17T03:20:26.202Z,93.92
2022-11-17T03:23:04.534Z,93.85
2022-11-17T03:25:37.599Z,93.77
2022-11-17T03:28:09.859Z,93.77
2022-11-17T03:30:43.012Z,93.67
2022-11-17T03:33:17.229Z,93.58
2022-11-17T03:35:51.685Z,93.53
2022-11-17T03:38:23.891Z,93.74
2022-11-17T03:40:56.754Z,93.80
2022-11-17T03:43:26.844Z,93.73
2022-11-17T03:45:59.091Z,94.01
2022-11-17T03:48:34.215Z,94.09
2022-11-17T03:51:07.447Z,93.81
2022-11-17T03:53:36.516Z,94.23
2022-11-17T03:56:42.417Z,94.38
2022-11-17T03:59:24.663Z,93.98
2022-11-17T04:01:52.793Z,94.08
2022-11-17T04:04:22.634Z,94.27
2022-11-17T04:06:53.215Z,94.28
2022-11-17T04:09:24.409Z,94.34
2022-11-17T04:12:11.081Z,94.40
2022-11-17T04:14:57.766Z,94.40
2022-11-17T04:17:25.684Z,94.22
2022-11-17T04:19:53.540Z,94.17
2022-11-17T04:22:21.316Z,94.13
2022-11-17T04:24:49.076Z,93.99
2022-11-17T04:27:35.664Z,93.96
2022-11-17T04:30:03.942Z,94.24
2022-11-17T04:32:31.743Z,94.27
2022-11-17T04:34:59.508Z,94.16
2022-11-17T04:37:27.318Z,94.05
2022-11-17T04:39:55.088Z,93.75
2022-11-17T04:42:22.907Z,94.03
2022-11-17T04:44:50.674Z,93.78
2022-11-17T04:47:18.456Z,94.20
2022-11-17T04:49:46.233Z,94.16
2022-11-17T04:52:13.987Z,93.91
2022-11-17T04:54:41.817Z,94.05
2022-11-17T04:57:11.668Z,93.70
2022-11-17T04:59:39.419Z,94.19
2022-11-17T05:02:07.355Z,93.82
2022-11-17T05:04:53.868Z,94.04
2022-11-17T05:07:21.758Z,93.88
2022-11-17T05:09:49.685Z,93.54
2022-11-17T05:12:36.158Z,93.53
2022-11-17T05:15:04.369Z,93.52
2022-11-17T05:17:32.119Z,93.69
2022-11-17T05:20:01.326Z,93.36
2022-11-17T05:22:47.542Z,93.64
2022-11-17T05:25:15.321Z,93.75
2022-11-17T05:27:43.085Z,93.51
2022-11-17T05:30:11.837Z,93.65
2022-11-17T05:32:39.856Z,93.64
2022-11-17T05:35:08.069Z,93.48
2022-11-17T05:37:35.815Z,93.81
2022-11-17T05:40:03.796Z,93.83
2022-11-17T05:42:31.751Z,93.74
2022-11-17T05:44:59.565Z,93.81
2022-11-17T05:47:27.465Z,93.87
2022-11-17T05:49:55.196Z,93.86
2022-11-17T05:52:22.950Z,94.05
2022-11-17T05:54:50.747Z,93.84
2022-11-17T05:57:25.661Z,93.74
2022-11-17T05:59:59.717Z,93.65
2022-11-17T06:02:43.902Z,93.74
2022-11-17T06:05:17.029Z,93.74
2022-11-17T06:07:48.132Z,93.68
2022-11-17T06:10:16.077Z,93.95
2022-11-17T06:12:43.883Z,93.73
2022-11-17T06:15:11.703Z,93.67
2022-11-17T06:17:46.534Z,93.67
2022-11-17T06:20:17.825Z,93.82
2022-11-17T06:22:48.463Z,93.96
2022-11-17T06:25:19.310Z,93.75
2022-11-17T06:27:49.570Z,93.53
2022-11-17T06:30:17.813Z,93.24
2022-11-17T06:32:46.536Z,93.66
2022-11-17T06:35:16.592Z,93.80
2022-11-17T06:37:44.450Z,93.45
2022-11-17T06:40:13.630Z,93.39
2022-11-17T06:43:00.123Z,93.32
2022-11-17T06:45:27.972Z,93.29
2022-11-17T06:47:55.802Z,93.11
2022-11-17T06:50:23.668Z,92.94
2022-11-17T06:52:51.444Z,92.82
2022-11-17T06:55:19.286Z,92.83
2022-11-17T06:57:52.974Z,92.89
2022-11-17T07:00:21.404Z,92.88
2022-11-17T07:02:49.205Z,92.90
2022-11-17T07:05:17.018Z,92.55
2022-11-17T07:07:44.693Z,92.07
2022-11-17T07:10:12.476Z,92.37
2022-11-17T07:12:40.267Z,92.61
2022-11-17T07:15:08.499Z,92.55
2022-11-17T07:17:36.245Z,92.49
2022-11-17T07:20:04.345Z,91.97
2022-11-17T07:22:32.099Z,92.04
2022-11-17T07:24:59.881Z,91.76
2022-11-17T07:27:27.662Z,92.23
2022-11-17T07:29:55.466Z,91.43
2022-11-17T07:32:23.860Z,91.32
2022-11-17T07:34:51.766Z,91.12
2022-11-17T07:37:19.605Z,91.15
2022-11-17T07:39:47.371Z,91.08
2022-11-17T07:42:15.155Z,90.91
2022-11-17T07:44:43.473Z,90.70
2022-11-17T07:47:11.244Z,90.42
2022-11-17T07:49:38.956Z,90.15
2022-11-17T07:52:07.271Z,90.16
2022-11-17T07:54:35.216Z,90.42
2022-11-17T07:57:03.199Z,90.31
2022-11-17T07:59:31.013Z,89.89
2022-11-17T08:01:58.788Z,90.08
2022-11-17T08:04:26.560Z,89.93
2022-11-17T08:06:54.463Z,89.96
2022-11-17T08:09:22.323Z,89.88
2022-11-17T08:11:51.886Z,89.32
2022-11-17T08:14:19.744Z,89.17
2022-11-17T08:16:47.469Z,89.03
2022-11-17T08:19:15.308Z,88.44
2022-11-17T08:21:43.063Z,88.74
2022-11-17T08:24:12.543Z,88.92
2022-11-17T08:26:40.323Z,88.71
2022-11-17T08:29:08.289Z,88.42
2022-11-17T08:31:36.162Z,87.95
2022-11-17T08:34:04.020Z,88.54
2022-11-17T08:36:31.884Z,88.54
2022-11-17T08:38:59.728Z,87.94
2022-11-17T08:41:27.727Z,87.50
2022-11-17T08:43:55.513Z,87.33
2022-11-17T08:46:23.515Z,87.32
2022-11-17T08:48:56.928Z,87.54
2022-11-17T08:51:25.242Z,87.41
2022-11-17T08:53:53.207Z,86.15
2022-11-17T08:56:21.731Z,84.89
2022-11-17T08:58:49.613Z,84.71
2022-11-17T09:01:18.115Z,84.90
2022-11-17T09:03:47.552Z,85.09
2022-11-17T09:06:16.714Z,84.90
2022-11-17T09:08:56.252Z,85.35
2022-11-17T09:11:24.574Z,85.06
2022-11-17T09:13:52.325Z,84.57
2022-11-17T09:16:20.709Z,84.51
2022-11-17T09:18:48.729Z,83.98
2022-11-17T09:21:17.175Z,85.09
2022-11-17T09:23:45.038Z,85.08
2022-11-17T09:26:14.669Z,83.96
2022-11-17T09:28:44.429Z,84.20
2022-11-17T09:31:19.075Z,84.04
2022-11-17T09:33:47.229Z,84.10
2022-11-17T09:36:16.956Z,84.05
2022-11-17T09:38:45.290Z,83.91
2022-11-17T09:41:16.159Z,82.85
2022-11-17T09:43:57.128Z,83.47
2022-11-17T09:46:44.490Z,83.26
2022-11-17T09:49:33.259Z,82.97
2022-11-17T09:52:13.318Z,83.52
2022-11-17T09:54:47.438Z,83.33
2022-11-17T09:57:31.327Z,82.42
2022-11-17T10:00:16.190Z,81.84
2022-11-17T10:02:45.202Z,81.89
2022-11-17T10:05:26.630Z,81.92
2022-11-17T10:08:00.498Z,81.42
2022-11-17T10:10:36.741Z,80.91
2022-11-17T10:13:10.144Z,81.95
2022-11-17T10:15:46.567Z,82.31
2022-11-17T10:18:16.157Z,81.83
2022-11-17T10:20:45.409Z,80.80
2022-11-17T10:23:16.051Z,80.51
2022-11-17T10:25:45.221Z,80.97
2022-11-17T10:28:31.701Z,81.59
2022-11-17T10:31:03.205Z,81.65
2022-11-17T10:33:40.438Z,81.58
2022-11-17T10:36:15.371Z,80.44
2022-11-17T10:38:50.539Z,79.88
2022-11-17T10:41:23.130Z,80.66
2022-11-17T10:43:58.115Z,80.77
2022-11-17T10:46:26.141Z,81.22
2022-11-17T10:49:00.669Z,81.05
2022-11-17T10:51:32.630Z,81.22
2022-11-17T10:54:15.506Z,80.59
2022-11-17T10:56:50.527Z,81.45
2022-11-17T10:59:24.491Z,81.15
2022-11-17T11:01:52.865Z,80.39
2022-11-17T11:04:29.844Z,80.76
2022-11-17T11:07:23.862Z,81.09
2022-11-17T11:10:16.537Z,81.71
2022-11-17T11:13:08.189Z,81.93
2022-11-17T11:15:56.086Z,82.08
2022-11-17T11:18:23.953Z,81.14
2022-11-17T11:21:18.394Z,80.81
2022-11-17T11:23:55.116Z,80.44
2022-11-17T11:26:35.179Z,80.61
2022-11-17T11:29:08.999Z,80.40
2022-11-17T11:31:59.279Z,80.17
2022-11-17T11:34:48.475Z,80.40
2022-11-17T11:37:16.659Z,80.57
2022-11-17T11:40:03.791Z,81.33
2022-11-17T11:42:55.532Z,81.41
2022-11-17T11:45:29.521Z,81.21
2022-11-17T11:48:00.036Z,81.10
2022-11-17T11:50:41.468Z,81.45
2022-11-17T11:53:23.782Z,82.08
2022-11-17T11:56:04.816Z,82.40
2022-11-17T11:58:32.594Z,82.40
2022-11-17T12:01:06.793Z,82.01
2022-11-17T12:03:46.852Z,81.61
2022-11-17T12:06:44.191Z,82.01
2022-11-17T12:09:11.944Z,82.56
2022-11-17T12:12:00.459Z,82.41
2022-11-17T12:14:29.809Z,82.57
2022-11-17T12:17:02.205Z,82.67
2022-11-17T12:19:55.509Z,83.05
2022-11-17T12:22:29.576Z,82.67
2022-11-17T12:25:21.727Z,82.46
2022-11-17T12:27:55.539Z,82.48
2022-11-17T12:30:38.440Z,82.79
2022-11-17T12:33:08.500Z,83.20
2022-11-17T12:35:38.177Z,83.10
2022-11-17T12:38:18.185Z,83.13
2022-11-17T12:40:47.325Z,83.10
2022-11-17T12:43:15.082Z,83.12
2022-11-17T12:46:03.582Z,82.68
2022-11-17T12:48:36.012Z,82.81
2022-11-17T12:51:14.307Z,82.96
2022-11-17T12:54:03.605Z,83.33
2022-11-17T12:56:50.691Z,83.23
2022-11-17T13:00:07.570Z,83.10
2022-11-17T13:02:59.026Z,82.87
2022-11-17T13:05:28.758Z,82.75
2022-11-17T13:08:15.026Z,82.76
2022-11-17T13:10:42.851Z,82.76
2022-11-17T13:13:22.744Z,82.54
2022-11-17T13:15:53.524Z,82.21
2022-11-17T13:18:30.641Z,82.15
2022-11-17T13:20:59.425Z,82.31
2022-11-17T13:23:29.828Z,82.43
2022-11-17T13:26:23.303Z,82.54
2022-11-17T13:29:19.529Z,82.93
2022-11-17T13:31:48.913Z,83.19
2022-11-17T13:34:21.728Z,82.99
2022-11-17T13:37:00.160Z,83.26
2022-11-17T13:39:28.820Z,83.45
2022-11-17T13:41:58.149Z,83.41
2022-11-17T13:44:28.575Z,83.47
2022-11-17T13:46:56.551Z,83.80
2022-11-17T13:49:38.371Z,84.26
2022-11-17T13:52:15.009Z,84.51
2022-11-17T13:54:46.007Z,84.74
2022-11-17T13:57:27.183Z,84.72
2022-11-17T13:59:57.141Z,84.99
2022-11-17T14:02:26.865Z,85.05
2022-11-17T14:05:18.455Z,85.05
2022-11-17T14:07:47.011Z,84.92
2022-11-17T14:10:20.888Z,85.29
2022-11-17T14:12:54.847Z,85.02
2022-11-17T14:15:28.755Z,84.73
2022-11-17T14:18:01.986Z,84.39
2022-11-17T14:20:36.458Z,84.40
2022-11-17T14:23:08.717Z,84.27
2022-11-17T14:25:40.122Z,84.43
2022-11-17T14:28:26.838Z,84.52
2022-11-17T14:30:56.466Z,84.62
2022-11-17T14:33:24.808Z,84.24
2022-11-17T14:35:59.057Z,84.33
2022-11-17T14:38:26.819Z,84.97
2022-11-17T14:40:54.614Z,85.58
2022-11-17T14:43:22.639Z,85.43
2022-11-17T14:45:50.787Z,85.69
2022-11-17T14:48:19.548Z,85.81
2022-11-17T14:50:48.273Z,85.82
2022-11-17T14:53:16.068Z,85.58
2022-11-17T14:55:43.934Z,86.14
2022-11-17T14:58:11.730Z,86.18
2022-11-17T15:00:39.636Z,86.64
2022-11-17T15:03:07.636Z,86.80
2022-11-17T15:05:35.444Z,86.57
2022-11-17T15:08:03.365Z,86.91
2022-11-17T15:10:31.219Z,86.76
2022-11-17T15:12:59.119Z,86.83
2022-11-17T15:15:27.271Z,86.94
2022-11-17T15:17:55.215Z,87.07
2022-11-17T15:20:23.019Z,87.43
2022-11-17T15:22:50.887Z,87.64
2022-11-17T15:25:18.814Z,87.66
2022-11-17T15:27:46.676Z,87.52
2022-11-17T15:30:15.421Z,87.80
2022-11-17T15:32:43.206Z,87.54
2022-11-17T15:35:10.958Z,87.56
2022-11-17T15:37:38.715Z,87.93
2022-11-17T15:40:07.053Z,87.91
2022-11-17T15:42:34.876Z,87.89
2022-11-17T15:45:02.637Z,87.55
2022-11-17T15:47:30.414Z,87.35
2022-11-17T15:49:58.622Z,87.98
2022-11-17T15:52:48.763Z,87.94
2022-11-17T15:55:14.273Z,88.34
2022-11-17T15:57:42.105Z,87.89
2022-11-17T16:00:10.355Z,87.74
2022-11-17T16:02:41.075Z,87.91
2022-11-17T16:05:08.979Z,87.89
2022-11-17T16:07:36.948Z,88.20
2022-11-17T16:10:05.091Z,87.94
2022-11-17T16:12:32.829Z,87.96
2022-11-17T16:15:00.650Z,87.87
2022-11-17T16:17:28.381Z,87.88
2022-11-17T16:19:56.222Z,88.46
2022-11-17T16:22:23.976Z,88.37
2022-11-17T16:24:51.770Z,88.40
2022-11-17T16:27:19.543Z,88.01
2022-11-17T16:29:47.310Z,87.99
2022-11-17T16:32:15.034Z,88.01
2022-11-17T16:34:43.632Z,88.28
2022-11-17T16:37:11.500Z,88.48
2022-11-17T16:39:39.707Z,88.41
2022-11-17T16:42:07.476Z,88.28
2022-11-17T16:44:35.404Z,88.13
2022-11-17T16:47:03.213Z,88.09
2022-11-17T16:49:32.795Z,88.29
2022-11-17T16:52:00.594Z,88.29
2022-11-17T16:54:28.618Z,88.11
2022-11-17T16:56:56.485Z,87.73
2022-11-17T16:59:24.830Z,87.84
2022-11-17T17:01:52.708Z,88.19
2022-11-17T17:04:20.458Z,88.21
2022-11-17T17:06:48.234Z,88.25
2022-11-17T17:09:16.394Z,88.23
2022-11-17T17:11:44.704Z,88.42
2022-11-17T17:14:14.819Z,87.92
2022-11-17T17:16:43.131Z,87.80
2022-11-17T17:19:13.079Z,87.90
2022-11-17T17:21:41.649Z,87.99
2022-11-17T17:24:10.556Z,87.85
2022-11-17T17:26:40.184Z,87.68
2022-11-17T17:29:09.081Z,88.04
2022-11-17T17:31:40.463Z,88.03
2022-11-17T17:34:09.079Z,88.42
2022-11-17T17:36:38.579Z,88.29
2022-11-17T17:39:08.121Z,88.09
2022-11-17T17:41:39.727Z,87.85
2022-11-17T17:44:08.674Z,87.65
2022-11-17T17:46:38.436Z,87.75
2022-11-17T17:49:07.227Z,87.87
2022-11-17T17:51:40.360Z,87.94
2022-11-17T17:54:14.244Z,88.20
2022-11-17T18:04:04.952Z,88.66
2022-11-17T18:06:39.539Z,88.20
2022-11-17T18:09:10.511Z,87.92
2022-11-17T18:11:45.922Z,87.82
2022-11-17T18:14:14.007Z,88.39
2022-11-17T18:16:41.858Z,88.31
2022-11-17T18:19:14.601Z,88.28
2022-11-17T18:21:43.255Z,88.67
2022-11-17T18:24:12.633Z,88.37
2022-11-17T18:26:41.375Z,88.29
2022-11-17T18:29:14.899Z,88.43
2022-11-17T18:31:43.141Z,88.45
2022-11-17T18:34:21.303Z,88.35
2022-11-17T18:36:55.746Z,88.09
2022-11-17T18:39:24.478Z,88.10
2022-11-17T18:41:52.281Z,88.35
2022-11-17T18:44:20.084Z,88.44
2022-11-17T18:46:51.713Z,88.59
2022-11-17T18:49:19.972Z,88.59
2022-11-17T18:51:48.128Z,88.37
2022-11-17T18:54:16.074Z,88.10
2022-11-17T18:56:44.695Z,87.86
2022-11-17T18:59:12.715Z,88.31
2022-11-17T19:01:42.724Z,88.38
2022-11-17T19:04:13.939Z,88.63
2022-11-17T19:06:42.237Z,88.68
2022-11-17T19:09:10.929Z,88.51
2022-11-17T19:11:38.778Z,88.31
2022-11-17T19:14:06.656Z,88.42
2022-11-17T19:16:44.616Z,88.61
2022-11-17T19:19:14.209Z,88.34
2022-11-17T19:21:42.836Z,88.21
2022-11-17T19:24:12.184Z,88.11
2022-11-17T19:26:40.064Z,87.71
2022-11-17T19:29:16.769Z,88.17
2022-11-17T19:31:46.784Z,88.16
2022-11-17T19:34:15.325Z,88.01
2022-11-17T19:36:44.640Z,88.00
2022-11-17T19:39:13.619Z,87.78
2022-11-17T19:41:42.212Z,87.91
2022-11-17T19:44:10.107Z,87.84
2022-11-17T19:46:37.879Z,88.40
2022-11-17T19:49:07.606Z,88.22
2022-11-17T19:51:37.174Z,88.18
2022-11-17T19:54:08.015Z,88.17
2022-11-17T19:56:37.134Z,88.01
2022-11-17T19:59:06.297Z,87.76
2022-11-17T20:01:34.914Z,87.81
2022-11-17T20:04:02.882Z,88.00
2022-11-17T20:06:37.187Z,88.12
2022-11-17T20:09:10.268Z,88.05
2022-11-17T20:11:38.223Z,87.85
2022-11-17T20:14:06.505Z,87.86
2022-11-17T20:16:34.369Z,87.93
2022-11-17T20:19:03.008Z,88.21
2022-11-17T20:21:31.507Z,88.41
2022-11-17T20:24:00.435Z,88.77
2022-11-17T20:26:31.967Z,88.66
2022-11-17T20:29:00.605Z,88.22
2022-11-17T20:31:31.695Z,88.45
2022-11-17T20:34:01.623Z,88.63
2022-11-17T20:36:31.224Z,88.51
2022-11-17T20:39:01.764Z,88.67
2022-11-17T20:41:30.455Z,88.15
2022-11-17T20:44:00.448Z,88.01
2022-11-17T20:46:28.522Z,88.29
2022-11-17T20:48:56.345Z,88.76
2022-11-17T20:51:25.588Z,88.82
2022-11-17T20:53:53.644Z,88.51
2022-11-17T20:56:21.530Z,88.28
2022-11-17T20:58:49.415Z,88.54
2022-11-17T21:01:20.116Z,88.37
2022-11-17T21:03:48.246Z,88.77
2022-11-17T21:06:16.847Z,88.62
2022-11-17T21:08:46.084Z,88.73
2022-11-17T21:11:35.754Z,88.73
2022-11-17T21:14:05.634Z,88.74
2022-11-17T21:16:34.773Z,89.18
2022-11-17T21:19:02.818Z,88.92
2022-11-17T21:21:30.669Z,89.24
2022-11-17T21:23:58.591Z,88.85
2022-11-17T21:26:27.837Z,88.78
2022-11-17T21:28:58.394Z,88.77
2022-11-17T21:31:30.824Z,88.40
2022-11-17T21:34:01.119Z,88.63
2022-11-17T21:36:31.317Z,89.10
2022-11-17T21:38:59.973Z,88.87
2022-11-17T21:41:34.785Z,88.70
2022-11-17T21:44:03.136Z,88.49
2022-11-17T21:46:33.332Z,88.72
2022-11-17T21:49:01.867Z,88.54
2022-11-17T21:51:33.531Z,88.74
2022-11-17T21:54:04.650Z,89.05
2022-11-17T21:56:32.571Z,89.21
2022-11-17T21:59:03.185Z,88.82
2022-11-17T22:01:31.755Z,88.99
2022-11-17T22:03:59.626Z,88.83
2022-11-17T22:06:28.013Z,88.95
2022-11-17T22:08:56.593Z,89.33
2022-11-17T22:11:35.864Z,89.36
2022-11-17T22:14:19.194Z,89.68
2022-11-17T22:16:49.780Z,89.63
2022-11-17T22:19:18.918Z,89.55
2022-11-17T22:21:52.913Z,89.48
2022-11-17T22:24:21.320Z,89.76
2022-11-17T22:26:49.211Z,89.92
2022-11-17T22:29:21.947Z,89.76
2022-11-17T22:31:50.320Z,90.00
2022-11-17T22:34:18.357Z,89.61
2022-11-17T22:36:46.273Z,89.50
2022-11-17T22:39:15.872Z,89.35
2022-11-17T22:41:43.828Z,90.00
2022-11-17T22:44:15.898Z,90.00
2022-11-17T22:46:43.843Z,89.89
2022-11-17T22:49:12.747Z,90.08
2022-11-17T22:51:59.329Z,89.77
2022-11-17T22:54:27.204Z,90.04
2022-11-17T22:56:55.002Z,89.95
2022-11-17T22:59:24.039Z,90.01
2022-11-17T23:01:51.883Z,90.02
2022-11-17T23:04:20.087Z,89.67
2022-11-17T23:06:47.865Z,89.50
2022-11-17T23:09:16.123Z,89.53
2022-11-17T23:11:44.272Z,89.62
2022-11-17T23:14:14.013Z,89.36
2022-11-17T23:16:42.360Z,89.31
2022-11-17T23:19:14.096Z,89.22
2022-11-17T23:21:42.284Z,89.11
2022-11-17T23:24:12.837Z,89.16
2022-11-17T23:26:42.287Z,89.23
2022-11-17T23:29:10.317Z,89.24
2022-11-17T23:31:38.124Z,89.19
2022-11-17T23:34:08.770Z,89.32
2022-11-17T23:36:36.579Z,89.07
2022-11-17T23:39:04.521Z,89.15
2022-11-17T23:41:32.313Z,89.20
2022-11-17T23:44:00.052Z,89.27
2022-11-17T23:46:27.883Z,88.97
2022-11-17T23:48:57.324Z,88.67
2022-11-17T23:51:26.991Z,88.93
2022-11-17T23:53:54.711Z,88.94
2022-11-17T23:56:22.918Z,89.13
2022-11-17T23:58:51.624Z,89.40
